x

La Perouse Bank (46206) Wave Buoy

2:00am - Wed 22nd Feb 2017 All times are PST. -8 hours from GMT.

  • Sig Wave height 6.6ft
  • Peak Period 14s
  • Wind
    13mph, 18mph gusts
  • Sea Temp 53°f
  • Air Temp 91°f
  • Sea Pressure 1021.7mb
  • La Perouse Bank
  • La Perouse Bank

More Historic Weather Station data

Upgrade to MSW Pro to gain access to the past 30 days of data for over 8000 Wavebouys and Weather Stations around the globe.

Join Pro

Comparision Forecast

View Surf forecast
   
Wed 02/22 2:00am 6.5ft 14s 13 18 mph 1021.7mb 53f 91f
1:00am 6.5ft 15s 16 20 mph 1021.4mb 51f 91f
12:00am 6ft 15s 18 22 mph 1020.9mb 55f -
Tue 02/21 11:00pm 6.5ft 11s 18 22 mph 1020.6mb 52f -
10:00pm 6ft 11s 18 22 mph 1020.2mb 53f 94f
9:00pm 6ft 11s 16 18 mph 1019.8mb 53f -
8:00pm 6ft 11s 18 22 mph 1019.2mb 52f -
7:00pm 6ft 11s 18 22 mph 1018.9mb 52f -
6:00pm 5.5ft 10s 18 22 mph 1018.4mb 52f -
5:00pm 5ft 12s 16 18 mph 1017.7mb 53f 93f
4:00pm 5.5ft 12s 13 18 mph 1017.3mb 54f 91f
3:00pm 5ft 10s 16 22 mph 1016.7mb 52f 95f
2:00pm 6ft 12s 13 18 mph 1016.2mb 53f 91f
1:00pm 5.5ft 11s 11 16 mph 1015.6mb 51f 94f
12:00pm 6ft 11s 16 20 mph 1015.2mb 52f 94f
11:00am 7ft 11s 16 20 mph 1014.6mb 53f -
10:00am 7ft 10s 20 25 mph 1013.5mb 53f -
9:00am 7.5ft 11s 20 25 mph 1012.4mb 51f 80f
8:00am 7.5ft 11s 22 27 mph 1011.2mb 52f 62f
7:00am 7.5ft 12s 22 27 mph 1010.1mb 56f 89f
6:00am 8ft 12s 22 27 mph 1009.4mb 50f -
5:00am 8ft 12s 22 27 mph 1008.9mb 51f -
4:00am 7ft 12s 22 27 mph 1008.4mb 51f -
3:00am 6.5ft 12s 20 25 mph 1008.5mb 52f -
2:00am 6.5ft 12s 18 22 mph 1008.5mb 50f -
1:00am 7ft 12s 16 20 mph 1008.2mb 53f -
12:00am 7ft 12s 16 20 mph 1007.8mb 58f -
Mon 02/20 11:00pm 7ft 12s 16 18 mph 1007.3mb 53f -
10:00pm 7ft 12s 18 20 mph 1006.8mb 50f -
9:00pm 7ft 13s 18 20 mph 1006.8mb 55f -
8:00pm 7.5ft 13s 18 22 mph 1006.5mb 51f -
7:00pm 9ft 13s 18 22 mph 1006.4mb 51f -
6:00pm 8ft 13s 18 22 mph 1006.1mb 51f 92f
5:00pm 9ft 12s 18 22 mph 1005.7mb 51f 93f
4:00pm 8.5ft 13s 18 22 mph 1005.1mb 51f 91f
3:00pm 8.5ft 14s 18 20 mph 1004.5mb 51f -
2:00pm 8ft 14s 18 22 mph 1004mb 52f -
1:00pm 8ft 14s 18 20 mph 1003.4mb 52f -
12:00pm 8ft 14s 13 16 mph 1003.1mb 52f -
11:00am 8.5ft 14s 11 16 mph 1002.4mb 51f -
10:00am 8.5ft 14s 11 16 mph 1001.6mb 52f 89f
9:00am 8.5ft 14s 7 9 mph 1001.3mb 50f -
8:00am 10ft 12s 7 9 mph 1000.5mb 50f -
7:00am 10ft 14s 9 11 mph 1000.1mb 53f -
6:00am 10ft 14s 11 16 mph 1000.2mb 51f -
5:00am 10.5ft 13s 13 16 mph 1000.2mb 51f -
4:00am 11ft 14s 16 20 mph 1000.1mb 50f -
3:00am 10.5ft 16s 9 11 mph 1000.6mb 51f -
2:00am 11.5ft 14s 4 9 mph 1001.1mb 52f -
1:00am 10.5ft 14s 4 9 mph 1001.3mb 52f -
12:00am 10.5ft 16s 4 7 mph 1001.2mb 51f -
Sun 02/19 11:00pm 10ft 16s 2 4 mph 1000.7mb 52f -
10:00pm 9ft 15s 4 7 mph 1000.2mb 51f -
9:00pm 9.5ft 16s 2 7 mph 999.5mb 51f -
8:00pm 9ft 17s 4 7 mph 998.6mb 53f -
7:00pm 7.5ft 17s 4 7 mph 997.7mb 54f -
6:00pm 7ft 17s 7 11 mph 997mb 52f -
5:00pm 6ft 18s 9 13 mph 996.4mb 55f -
4:00pm 6ft 18s 9 11 mph 995.9mb 51f -
3:00pm 5.5ft 18s 4 7 mph 995.6mb 53f -
2:00pm 5ft 10s 7 9 mph 995.1mb 52f -
1:00pm 5ft 11s 13 16 mph 994.9mb 51f -
12:00pm 4.5ft 10s 7 9 mph 994.8mb 51f -
11:00am 5ft 10s 9 11 mph 994.7mb 52f -
10:00am 5ft 11s 9 11 mph 994.3mb 52f -
9:00am 5ft 11s 7 9 mph 994mb 51f -
8:00am 5ft 10s 2 4 mph 993.8mb 52f -
7:00am 4.5ft 11s 9 16 mph 993.8mb 51f -
6:00am 5ft 12s 4 7 mph 993.7mb 51f -
5:00am 5ft 11s 13 16 mph 993.3mb 51f -
4:00am 5ft 12s 16 20 mph 993.2mb 51f 92f
3:00am 5ft 11s 7 11 mph 993.5mb 53f 92f
2:00am 5ft 11s 9 13 mph 993.8mb 51f -
1:00am 5ft 12s 11 13 mph 993.9mb 53f -
12:00am 5ft 10s 11 13 mph 994.2mb 52f -
Sat 02/18 11:00pm 5.5ft 11s 11 13 mph 994.5mb 53f -
10:00pm 6ft 11s 2 4 mph 994.6mb 55f -
9:00pm 6ft 10s 4 7 mph 994.5mb 54f -
8:00pm 6ft 11s 7 9 mph 994.2mb 51f -
7:00pm 6.5ft 11s 9 11 mph 994.2mb 53f -